sensor_id;sensor_type;location;lat;lon;timestamp;pressure;altitude;pressure_sealevel;temperature;humidity
24154;BME280;12312;53.362;-1.518;2023-04-08T00:00:05;99963.44;;;8.33;100.00
24154;BME280;12312;53.362;-1.518;2023-04-08T00:02:50;99962.75;;;8.79;100.00
24154;BME280;12312;53.362;-1.518;2023-04-08T00:05:34;99962.53;;;8.99;100.00
24154;BME280;12312;53.362;-1.518;2023-04-08T00:08:18;99961.28;;;9.07;100.00
24154;BME280;12312;53.362;-1.518;2023-04-08T00:11:03;99974.91;;;8.83;100.00
24154;BME280;12312;53.362;-1.518;2023-04-08T00:13:47;99964.34;;;9.15;100.00
24154;BME280;12312;53.362;-1.518;2023-04-08T00:16:31;99967.50;;;8.90;100.00
24154;BME280;12312;53.362;-1.518;2023-04-08T00:19:16;99971.97;;;8.55;100.00
24154;BME280;12312;53.362;-1.518;2023-04-08T00:22:00;99976.06;;;8.62;100.00
24154;BME280;12312;53.362;-1.518;2023-04-08T00:24:44;99963.28;;;8.53;100.00
24154;BME280;12312;53.362;-1.518;2023-04-08T00:27:28;99963.88;;;8.58;100.00
24154;BME280;12312;53.362;-1.518;2023-04-08T00:30:12;99970.47;;;8.84;100.00
24154;BME280;12312;53.362;-1.518;2023-04-08T00:32:58;99963.09;;;8.73;100.00
24154;BME280;12312;53.362;-1.518;2023-04-08T00:35:42;99969.94;;;8.77;100.00
24154;BME280;12312;53.362;-1.518;2023-04-08T00:38:26;99965.75;;;8.89;100.00
24154;BME280;12312;53.362;-1.518;2023-04-08T00:41:10;99964.94;;;8.71;100.00
24154;BME280;12312;53.362;-1.518;2023-04-08T00:43:54;99976.06;;;8.62;100.00
24154;BME280;12312;53.362;-1.518;2023-04-08T00:46:39;99970.72;;;8.79;100.00
24154;BME280;12312;53.362;-1.518;2023-04-08T00:49:23;99973.22;;;8.82;100.00
24154;BME280;12312;53.362;-1.518;2023-04-08T00:52:08;99972.72;;;8.91;100.00
24154;BME280;12312;53.362;-1.518;2023-04-08T00:54:52;99972.88;;;8.88;100.00
24154;BME280;12312;53.362;-1.518;2023-04-08T00:57:36;99971.44;;;8.98;100.00
24154;BME280;12312;53.362;-1.518;2023-04-08T01:00:20;99965.22;;;9.31;100.00
24154;BME280;12312;53.362;-1.518;2023-04-08T01:03:23;99959.75;;;9.34;100.00
24154;BME280;12312;53.362;-1.518;2023-04-08T01:06:43;99974.75;;;9.50;100.00
24154;BME280;12312;53.362;-1.518;2023-04-08T01:09:32;99969.34;;;9.36;100.00
24154;BME280;12312;53.362;-1.518;2023-04-08T01:13:19;57923.84;;;-139.99;100.00
24154;BME280;12312;53.362;-1.518;2023-04-08T01:17:10;57923.84;;;-139.99;100.00
24154;BME280;12312;53.362;-1.518;2023-04-08T01:20:53;57923.84;;;-139.99;100.00
24154;BME280;12312;53.362;-1.518;2023-04-08T01:24:41;57923.84;;;-139.99;100.00
24154;BME280;12312;53.362;-1.518;2023-04-08T01:28:26;57923.84;;;-139.99;100.00
24154;BME280;12312;53.362;-1.518;2023-04-08T01:32:10;57923.84;;;-139.99;100.00
24154;BME280;12312;53.362;-1.518;2023-04-08T01:35:54;57923.84;;;-139.99;100.00
24154;BME280;12312;53.362;-1.518;2023-04-08T01:39:38;57923.84;;;-139.99;100.00
24154;BME280;12312;53.362;-1.518;2023-04-08T01:43:24;57923.84;;;-139.99;100.00
24154;BME280;12312;53.362;-1.518;2023-04-08T01:47:09;57923.84;;;-139.99;100.00
24154;BME280;12312;53.362;-1.518;2023-04-08T01:50:54;57923.84;;;-139.99;100.00
24154;BME280;12312;53.362;-1.518;2023-04-08T01:54:38;57923.84;;;-139.99;100.00
24154;BME280;12312;53.362;-1.518;2023-04-08T01:58:22;57923.84;;;-139.99;100.00
24154;BME280;12312;53.362;-1.518;2023-04-08T02:02:09;57923.84;;;-139.99;100.00
24154;BME280;12312;53.362;-1.518;2023-04-08T02:05:53;57923.84;;;-139.99;100.00
24154;BME280;12312;53.362;-1.518;2023-04-08T02:09:36;57923.84;;;-139.99;100.00
24154;BME280;12312;53.362;-1.518;2023-04-08T02:13:19;57923.84;;;-139.99;100.00
24154;BME280;12312;53.362;-1.518;2023-04-08T02:17:38;57923.84;;;-139.99;100.00
24154;BME280;12312;53.362;-1.518;2023-04-08T02:21:45;57923.84;;;-139.99;100.00
24154;BME280;12312;53.362;-1.518;2023-04-08T02:25:36;57923.84;;;-139.99;100.00
24154;BME280;12312;53.362;-1.518;2023-04-08T02:29:21;57923.84;;;-139.99;100.00
24154;BME280;12312;53.362;-1.518;2023-04-08T02:33:06;57923.84;;;-139.99;100.00
24154;BME280;12312;53.362;-1.518;2023-04-08T02:36:50;57923.84;;;-139.99;100.00
24154;BME280;12312;53.362;-1.518;2023-04-08T02:40:33;57923.84;;;-139.99;100.00
24154;BME280;12312;53.362;-1.518;2023-04-08T02:44:16;57923.84;;;-139.99;100.00
24154;BME280;12312;53.362;-1.518;2023-04-08T02:47:59;57923.84;;;-139.99;100.00
24154;BME280;12312;53.362;-1.518;2023-04-08T02:51:43;57923.84;;;-139.99;100.00
24154;BME280;12312;53.362;-1.518;2023-04-08T02:55:25;57923.84;;;-139.99;100.00
24154;BME280;12312;53.362;-1.518;2023-04-08T02:59:08;57923.84;;;-139.99;100.00
24154;BME280;12312;53.362;-1.518;2023-04-08T03:02:51;57923.84;;;-139.99;100.00
24154;BME280;12312;53.362;-1.518;2023-04-08T03:06:34;57923.84;;;-139.99;100.00
24154;BME280;12312;53.362;-1.518;2023-04-08T03:10:17;57923.84;;;-139.99;100.00
24154;BME280;12312;53.362;-1.518;2023-04-08T03:14:00;57923.84;;;-139.99;100.00
24154;BME280;12312;53.362;-1.518;2023-04-08T03:17:42;57923.84;;;-139.99;100.00
24154;BME280;12312;53.362;-1.518;2023-04-08T03:21:25;57923.84;;;-139.99;100.00
24154;BME280;12312;53.362;-1.518;2023-04-08T03:25:08;57923.84;;;-139.99;100.00
24154;BME280;12312;53.362;-1.518;2023-04-08T03:28:51;57923.84;;;-139.99;100.00
24154;BME280;12312;53.362;-1.518;2023-04-08T03:32:34;57923.84;;;-139.99;100.00
24154;BME280;12312;53.362;-1.518;2023-04-08T03:36:17;57923.84;;;-139.99;100.00
24154;BME280;12312;53.362;-1.518;2023-04-08T03:39:59;57923.84;;;-139.99;100.00
24154;BME280;12312;53.362;-1.518;2023-04-08T03:43:43;57923.84;;;-139.99;100.00
24154;BME280;12312;53.362;-1.518;2023-04-08T03:47:25;57923.84;;;-139.99;100.00
24154;BME280;12312;53.362;-1.518;2023-04-08T03:51:08;57923.84;;;-139.99;100.00
24154;BME280;12312;53.362;-1.518;2023-04-08T03:54:51;57923.84;;;-139.99;100.00
24154;BME280;12312;53.362;-1.518;2023-04-08T03:58:34;57923.84;;;-139.99;100.00
24154;BME280;12312;53.362;-1.518;2023-04-08T04:02:16;57923.84;;;-139.99;100.00
24154;BME280;12312;53.362;-1.518;2023-04-08T04:05:59;57923.84;;;-139.99;100.00
24154;BME280;12312;53.362;-1.518;2023-04-08T04:09:42;57923.84;;;-139.99;100.00
24154;BME280;12312;53.362;-1.518;2023-04-08T04:13:24;57923.84;;;-139.99;100.00
24154;BME280;12312;53.362;-1.518;2023-04-08T04:17:07;57923.84;;;-139.99;100.00
24154;BME280;12312;53.362;-1.518;2023-04-08T04:20:49;57923.84;;;-139.99;100.00
24154;BME280;12312;53.362;-1.518;2023-04-08T04:24:32;57923.84;;;-139.99;100.00
24154;BME280;12312;53.362;-1.518;2023-04-08T04:28:15;57923.84;;;-139.99;100.00
24154;BME280;12312;53.362;-1.518;2023-04-08T04:31:58;57923.84;;;-139.99;100.00
24154;BME280;12312;53.362;-1.518;2023-04-08T04:35:40;57923.84;;;-139.99;100.00
24154;BME280;12312;53.362;-1.518;2023-04-08T04:39:23;57923.84;;;-139.99;100.00
24154;BME280;12312;53.362;-1.518;2023-04-08T04:43:06;57923.84;;;-139.99;100.00
24154;BME280;12312;53.362;-1.518;2023-04-08T04:46:49;57923.84;;;-139.99;100.00
24154;BME280;12312;53.362;-1.518;2023-04-08T04:50:32;57923.84;;;-139.99;100.00
24154;BME280;12312;53.362;-1.518;2023-04-08T04:54:15;57923.84;;;-139.99;100.00
24154;BME280;12312;53.362;-1.518;2023-04-08T04:57:58;57923.84;;;-139.99;100.00
24154;BME280;12312;53.362;-1.518;2023-04-08T05:01:40;57923.84;;;-139.99;100.00
24154;BME280;12312;53.362;-1.518;2023-04-08T05:05:23;57923.84;;;-139.99;100.00
24154;BME280;12312;53.362;-1.518;2023-04-08T05:09:05;57923.84;;;-139.99;100.00
24154;BME280;12312;53.362;-1.518;2023-04-08T05:12:48;57923.84;;;-139.99;100.00
24154;BME280;12312;53.362;-1.518;2023-04-08T05:16:31;57923.84;;;-139.99;100.00
24154;BME280;12312;53.362;-1.518;2023-04-08T05:20:13;57923.84;;;-139.99;100.00
24154;BME280;12312;53.362;-1.518;2023-04-08T05:23:56;57923.84;;;-139.99;100.00
24154;BME280;12312;53.362;-1.518;2023-04-08T05:27:39;57923.84;;;-139.99;100.00
24154;BME280;12312;53.362;-1.518;2023-04-08T05:31:21;57923.84;;;-139.99;100.00
24154;BME280;12312;53.362;-1.518;2023-04-08T05:35:05;57923.84;;;-139.99;100.00
24154;BME280;12312;53.362;-1.518;2023-04-08T05:38:48;57923.84;;;-139.99;100.00
24154;BME280;12312;53.362;-1.518;2023-04-08T05:42:30;57923.84;;;-139.99;100.00
24154;BME280;12312;53.362;-1.518;2023-04-08T05:46:13;57923.84;;;-139.99;100.00
24154;BME280;12312;53.362;-1.518;2023-04-08T05:49:56;57923.84;;;-139.99;100.00
24154;BME280;12312;53.362;-1.518;2023-04-08T05:53:43;57923.84;;;-139.99;100.00
24154;BME280;12312;53.362;-1.518;2023-04-08T05:57:26;57923.84;;;-139.99;100.00
24154;BME280;12312;53.362;-1.518;2023-04-08T06:01:08;57923.84;;;-139.99;100.00
24154;BME280;12312;53.362;-1.518;2023-04-08T06:04:51;57923.84;;;-139.99;100.00
24154;BME280;12312;53.362;-1.518;2023-04-08T06:08:33;57923.84;;;-139.99;100.00
24154;BME280;12312;53.362;-1.518;2023-04-08T06:12:16;57923.84;;;-139.99;100.00
24154;BME280;12312;53.362;-1.518;2023-04-08T06:16:08;57923.84;;;-139.99;100.00
24154;BME280;12312;53.362;-1.518;2023-04-08T06:19:52;57923.84;;;-139.99;100.00
24154;BME280;12312;53.362;-1.518;2023-04-08T06:23:34;57923.84;;;-139.99;100.00
24154;BME280;12312;53.362;-1.518;2023-04-08T06:27:18;57923.84;;;-139.99;100.00
24154;BME280;12312;53.362;-1.518;2023-04-08T06:31:00;57923.84;;;-139.99;100.00
24154;BME280;12312;53.362;-1.518;2023-04-08T06:34:46;57923.84;;;-139.99;100.00
24154;BME280;12312;53.362;-1.518;2023-04-08T06:38:29;57923.84;;;-139.99;100.00
24154;BME280;12312;53.362;-1.518;2023-04-08T06:42:13;57923.84;;;-139.99;100.00
24154;BME280;12312;53.362;-1.518;2023-04-08T06:45:55;57923.84;;;-139.99;100.00
24154;BME280;12312;53.362;-1.518;2023-04-08T06:49:38;57923.84;;;-139.99;100.00
24154;BME280;12312;53.362;-1.518;2023-04-08T06:53:22;57923.84;;;-139.99;100.00
24154;BME280;12312;53.362;-1.518;2023-04-08T06:57:05;57923.84;;;-139.99;100.00
24154;BME280;12312;53.362;-1.518;2023-04-08T07:00:48;57923.84;;;-139.99;100.00
24154;BME280;12312;53.362;-1.518;2023-04-08T07:04:30;57923.84;;;-139.99;100.00
24154;BME280;12312;53.362;-1.518;2023-04-08T07:08:13;57923.84;;;-139.99;100.00
24154;BME280;12312;53.362;-1.518;2023-04-08T07:11:56;57923.84;;;-139.99;100.00
24154;BME280;12312;53.362;-1.518;2023-04-08T07:15:40;57923.84;;;-139.99;100.00
24154;BME280;12312;53.362;-1.518;2023-04-08T07:19:22;57923.84;;;-139.99;100.00
24154;BME280;12312;53.362;-1.518;2023-04-08T07:23:05;57923.84;;;-139.99;100.00
24154;BME280;12312;53.362;-1.518;2023-04-08T07:26:48;57923.84;;;-139.99;100.00
24154;BME280;12312;53.362;-1.518;2023-04-08T07:30:32;57923.84;;;-139.99;100.00
24154;BME280;12312;53.362;-1.518;2023-04-08T07:34:15;57923.84;;;-139.99;100.00
24154;BME280;12312;53.362;-1.518;2023-04-08T07:37:58;57923.84;;;-139.99;100.00
24154;BME280;12312;53.362;-1.518;2023-04-08T07:41:40;57923.84;;;-139.99;100.00
24154;BME280;12312;53.362;-1.518;2023-04-08T07:45:23;57923.84;;;-139.99;100.00
24154;BME280;12312;53.362;-1.518;2023-04-08T07:49:05;57923.84;;;-139.99;100.00
24154;BME280;12312;53.362;-1.518;2023-04-08T07:52:48;57923.84;;;-139.99;100.00
24154;BME280;12312;53.362;-1.518;2023-04-08T07:56:34;57923.84;;;-139.99;100.00
24154;BME280;12312;53.362;-1.518;2023-04-08T08:00:16;57923.84;;;-139.99;100.00
24154;BME280;12312;53.362;-1.518;2023-04-08T08:04:03;57923.84;;;-139.99;100.00
24154;BME280;12312;53.362;-1.518;2023-04-08T08:07:46;57923.84;;;-139.99;100.00
24154;BME280;12312;53.362;-1.518;2023-04-08T08:15:52;57923.84;;;-139.99;100.00
24154;BME280;12312;53.362;-1.518;2023-04-08T08:19:35;57923.84;;;-139.99;100.00
24154;BME280;12312;53.362;-1.518;2023-04-08T08:23:17;57923.84;;;-139.99;100.00
24154;BME280;12312;53.362;-1.518;2023-04-08T08:27:02;57923.84;;;-139.99;100.00
24154;BME280;12312;53.362;-1.518;2023-04-08T08:30:47;57923.84;;;-139.99;100.00
24154;BME280;12312;53.362;-1.518;2023-04-08T08:34:30;57923.84;;;-139.99;100.00
24154;BME280;12312;53.362;-1.518;2023-04-08T08:38:13;57923.84;;;-139.99;100.00
24154;BME280;12312;53.362;-1.518;2023-04-08T08:41:56;57923.84;;;-139.99;100.00
24154;BME280;12312;53.362;-1.518;2023-04-08T08:45:40;57923.84;;;-139.99;100.00
24154;BME280;12312;53.362;-1.518;2023-04-08T08:49:23;57923.84;;;-139.99;100.00
24154;BME280;12312;53.362;-1.518;2023-04-08T08:53:05;57923.84;;;-139.99;100.00
24154;BME280;12312;53.362;-1.518;2023-04-08T08:56:48;57923.84;;;-139.99;100.00
24154;BME280;12312;53.362;-1.518;2023-04-08T09:00:32;57923.84;;;-139.99;100.00
24154;BME280;12312;53.362;-1.518;2023-04-08T09:04:17;57923.84;;;-139.99;100.00
24154;BME280;12312;53.362;-1.518;2023-04-08T09:08:13;57923.84;;;-139.99;100.00
24154;BME280;12312;53.362;-1.518;2023-04-08T09:12:14;57923.84;;;-139.99;100.00
24154;BME280;12312;53.362;-1.518;2023-04-08T09:16:05;57923.84;;;-139.99;100.00
24154;BME280;12312;53.362;-1.518;2023-04-08T09:20:04;57923.84;;;-139.99;100.00
24154;BME280;12312;53.362;-1.518;2023-04-08T09:23:54;57923.84;;;-139.99;100.00
24154;BME280;12312;53.362;-1.518;2023-04-08T09:27:37;57923.84;;;-139.99;100.00
24154;BME280;12312;53.362;-1.518;2023-04-08T09:31:23;57923.84;;;-139.99;100.00
24154;BME280;12312;53.362;-1.518;2023-04-08T09:35:08;57923.84;;;-139.99;100.00
24154;BME280;12312;53.362;-1.518;2023-04-08T09:38:52;57923.84;;;-139.99;100.00
24154;BME280;12312;53.362;-1.518;2023-04-08T09:42:38;57923.84;;;-139.99;100.00
24154;BME280;12312;53.362;-1.518;2023-04-08T09:50:09;57923.84;;;-139.99;100.00
24154;BME280;12312;53.362;-1.518;2023-04-08T09:54:11;57923.84;;;-139.99;100.00
24154;BME280;12312;53.362;-1.518;2023-04-08T09:58:03;57923.84;;;-139.99;100.00
24154;BME280;12312;53.362;-1.518;2023-04-08T10:01:52;57923.84;;;-139.99;100.00
24154;BME280;12312;53.362;-1.518;2023-04-08T10:05:36;57923.84;;;-139.99;100.00
24154;BME280;12312;53.362;-1.518;2023-04-08T10:09:22;57923.84;;;-139.99;100.00
24154;BME280;12312;53.362;-1.518;2023-04-08T10:13:05;57923.84;;;-139.99;100.00
24154;BME280;12312;53.362;-1.518;2023-04-08T10:16:48;57923.84;;;-139.99;100.00
24154;BME280;12312;53.362;-1.518;2023-04-08T10:25:00;57923.84;;;-139.99;100.00
24154;BME280;12312;53.362;-1.518;2023-04-08T10:28:45;57923.84;;;-139.99;100.00
24154;BME280;12312;53.362;-1.518;2023-04-08T10:32:39;57923.84;;;-139.99;100.00
24154;BME280;12312;53.362;-1.518;2023-04-08T10:36:29;57923.84;;;-139.99;100.00
24154;BME280;12312;53.362;-1.518;2023-04-08T10:40:19;57923.84;;;-139.99;100.00
24154;BME280;12312;53.362;-1.518;2023-04-08T10:44:02;57923.84;;;-139.99;100.00
24154;BME280;12312;53.362;-1.518;2023-04-08T10:47:46;57923.84;;;-139.99;100.00
24154;BME280;12312;53.362;-1.518;2023-04-08T10:51:29;57923.84;;;-139.99;100.00
24154;BME280;12312;53.362;-1.518;2023-04-08T10:55:14;57923.84;;;-139.99;100.00
24154;BME280;12312;53.362;-1.518;2023-04-08T10:59:06;57923.84;;;-139.99;100.00
24154;BME280;12312;53.362;-1.518;2023-04-08T11:02:49;57923.84;;;-139.99;100.00
24154;BME280;12312;53.362;-1.518;2023-04-08T11:06:35;57923.84;;;-139.99;100.00
24154;BME280;12312;53.362;-1.518;2023-04-08T11:10:19;57923.84;;;-139.99;100.00
24154;BME280;12312;53.362;-1.518;2023-04-08T11:14:04;57923.84;;;-139.99;100.00
24154;BME280;12312;53.362;-1.518;2023-04-08T11:17:47;57923.84;;;-139.99;100.00
24154;BME280;12312;53.362;-1.518;2023-04-08T11:21:31;57923.84;;;-139.99;100.00
24154;BME280;12312;53.362;-1.518;2023-04-08T11:25:17;57923.84;;;-139.99;100.00
24154;BME280;12312;53.362;-1.518;2023-04-08T11:28:59;57923.84;;;-139.99;100.00
24154;BME280;12312;53.362;-1.518;2023-04-08T11:32:44;57923.84;;;-139.99;100.00
24154;BME280;12312;53.362;-1.518;2023-04-08T11:36:27;57923.84;;;-139.99;100.00
24154;BME280;12312;53.362;-1.518;2023-04-08T11:40:10;57923.84;;;-139.99;100.00
24154;BME280;12312;53.362;-1.518;2023-04-08T11:43:54;57923.84;;;-139.99;100.00
24154;BME280;12312;53.362;-1.518;2023-04-08T11:47:38;57923.84;;;-139.99;100.00
24154;BME280;12312;53.362;-1.518;2023-04-08T11:51:22;57923.84;;;-139.99;100.00
24154;BME280;12312;53.362;-1.518;2023-04-08T11:55:26;57923.84;;;-139.99;100.00
24154;BME280;12312;53.362;-1.518;2023-04-08T11:59:09;57923.84;;;-139.99;100.00
24154;BME280;12312;53.362;-1.518;2023-04-08T12:02:54;57923.84;;;-139.99;100.00
24154;BME280;12312;53.362;-1.518;2023-04-08T12:06:37;57923.84;;;-139.99;100.00
24154;BME280;12312;53.362;-1.518;2023-04-08T12:10:19;57923.84;;;-139.99;100.00
24154;BME280;12312;53.362;-1.518;2023-04-08T12:14:02;57923.84;;;-139.99;100.00
24154;BME280;12312;53.362;-1.518;2023-04-08T12:17:46;57923.84;;;-139.99;100.00
24154;BME280;12312;53.362;-1.518;2023-04-08T12:21:30;57923.84;;;-139.99;100.00
24154;BME280;12312;53.362;-1.518;2023-04-08T12:25:13;57923.84;;;-139.99;100.00
24154;BME280;12312;53.362;-1.518;2023-04-08T12:28:56;57923.84;;;-139.99;100.00
24154;BME280;12312;53.362;-1.518;2023-04-08T12:32:39;57923.84;;;-139.99;100.00
24154;BME280;12312;53.362;-1.518;2023-04-08T12:36:22;57923.84;;;-139.99;100.00
24154;BME280;12312;53.362;-1.518;2023-04-08T12:40:05;57923.84;;;-139.99;100.00
24154;BME280;12312;53.362;-1.518;2023-04-08T12:43:47;57923.84;;;-139.99;100.00
24154;BME280;12312;53.362;-1.518;2023-04-08T12:47:30;57923.84;;;-139.99;100.00
24154;BME280;12312;53.362;-1.518;2023-04-08T12:51:14;57923.84;;;-139.99;100.00
24154;BME280;12312;53.362;-1.518;2023-04-08T12:54:57;57923.84;;;-139.99;100.00
24154;BME280;12312;53.362;-1.518;2023-04-08T12:58:39;57923.84;;;-139.99;100.00
24154;BME280;12312;53.362;-1.518;2023-04-08T13:02:22;57923.84;;;-139.99;100.00
24154;BME280;12312;53.362;-1.518;2023-04-08T13:06:08;57923.84;;;-139.99;100.00
24154;BME280;12312;53.362;-1.518;2023-04-08T13:09:51;57923.84;;;-139.99;100.00
24154;BME280;12312;53.362;-1.518;2023-04-08T13:13:33;57923.84;;;-139.99;100.00
24154;BME280;12312;53.362;-1.518;2023-04-08T13:17:16;57923.84;;;-139.99;100.00
24154;BME280;12312;53.362;-1.518;2023-04-08T13:20:59;57923.84;;;-139.99;100.00
24154;BME280;12312;53.362;-1.518;2023-04-08T13:24:41;57923.84;;;-139.99;100.00
24154;BME280;12312;53.362;-1.518;2023-04-08T13:28:25;57923.84;;;-139.99;100.00
24154;BME280;12312;53.362;-1.518;2023-04-08T13:32:08;57923.84;;;-139.99;100.00
24154;BME280;12312;53.362;-1.518;2023-04-08T13:35:51;57923.84;;;-139.99;100.00
24154;BME280;12312;53.362;-1.518;2023-04-08T13:39:34;57923.84;;;-139.99;100.00
24154;BME280;12312;53.362;-1.518;2023-04-08T13:43:17;57923.84;;;-139.99;100.00
24154;BME280;12312;53.362;-1.518;2023-04-08T13:46:59;57923.84;;;-139.99;100.00
24154;BME280;12312;53.362;-1.518;2023-04-08T13:50:42;57923.84;;;-139.99;100.00
24154;BME280;12312;53.362;-1.518;2023-04-08T13:54:25;57923.84;;;-139.99;100.00
24154;BME280;12312;53.362;-1.518;2023-04-08T13:58:08;57923.84;;;-139.99;100.00
24154;BME280;12312;53.362;-1.518;2023-04-08T14:01:51;57923.84;;;-139.99;100.00
24154;BME280;12312;53.362;-1.518;2023-04-08T14:05:35;57923.84;;;-139.99;100.00
24154;BME280;12312;53.362;-1.518;2023-04-08T14:09:18;57923.84;;;-139.99;100.00
24154;BME280;12312;53.362;-1.518;2023-04-08T14:13:01;57923.84;;;-139.99;100.00
24154;BME280;12312;53.362;-1.518;2023-04-08T14:16:43;57923.84;;;-139.99;100.00
24154;BME280;12312;53.362;-1.518;2023-04-08T14:20:26;57923.84;;;-139.99;100.00
24154;BME280;12312;53.362;-1.518;2023-04-08T14:24:09;57923.84;;;-139.99;100.00
24154;BME280;12312;53.362;-1.518;2023-04-08T14:27:52;57923.84;;;-139.99;100.00
24154;BME280;12312;53.362;-1.518;2023-04-08T14:31:35;57923.84;;;-139.99;100.00
24154;BME280;12312;53.362;-1.518;2023-04-08T14:35:18;57923.84;;;-139.99;100.00
24154;BME280;12312;53.362;-1.518;2023-04-08T14:39:00;57923.84;;;-139.99;100.00
24154;BME280;12312;53.362;-1.518;2023-04-08T14:42:43;57923.84;;;-139.99;100.00
24154;BME280;12312;53.362;-1.518;2023-04-08T14:46:31;57923.84;;;-139.99;100.00
24154;BME280;12312;53.362;-1.518;2023-04-08T14:50:14;57923.84;;;-139.99;100.00
24154;BME280;12312;53.362;-1.518;2023-04-08T14:53:57;57923.84;;;-139.99;100.00
24154;BME280;12312;53.362;-1.518;2023-04-08T14:57:40;57923.84;;;-139.99;100.00
24154;BME280;12312;53.362;-1.518;2023-04-08T15:01:22;57923.84;;;-139.99;100.00
24154;BME280;12312;53.362;-1.518;2023-04-08T15:05:05;57923.84;;;-139.99;100.00
24154;BME280;12312;53.362;-1.518;2023-04-08T15:08:48;57923.84;;;-139.99;100.00
24154;BME280;12312;53.362;-1.518;2023-04-08T15:12:30;57923.84;;;-139.99;100.00
24154;BME280;12312;53.362;-1.518;2023-04-08T15:16:14;57923.84;;;-139.99;100.00
24154;BME280;12312;53.362;-1.518;2023-04-08T15:19:57;57923.84;;;-139.99;100.00
24154;BME280;12312;53.362;-1.518;2023-04-08T15:23:40;57923.84;;;-139.99;100.00
24154;BME280;12312;53.362;-1.518;2023-04-08T15:27:24;57923.84;;;-139.99;100.00
24154;BME280;12312;53.362;-1.518;2023-04-08T15:31:07;57923.84;;;-139.99;100.00
24154;BME280;12312;53.362;-1.518;2023-04-08T15:34:50;57923.84;;;-139.99;100.00
24154;BME280;12312;53.362;-1.518;2023-04-08T15:38:33;57923.84;;;-139.99;100.00
24154;BME280;12312;53.362;-1.518;2023-04-08T15:42:17;57923.84;;;-139.99;100.00
24154;BME280;12312;53.362;-1.518;2023-04-08T15:46:01;57923.84;;;-139.99;100.00
24154;BME280;12312;53.362;-1.518;2023-04-08T15:49:44;57923.84;;;-139.99;100.00
24154;BME280;12312;53.362;-1.518;2023-04-08T15:53:27;57923.84;;;-139.99;100.00
24154;BME280;12312;53.362;-1.518;2023-04-08T15:57:13;57923.84;;;-139.99;100.00
24154;BME280;12312;53.362;-1.518;2023-04-08T16:00:56;57923.84;;;-139.99;100.00
24154;BME280;12312;53.362;-1.518;2023-04-08T16:04:38;57923.84;;;-139.99;100.00
24154;BME280;12312;53.362;-1.518;2023-04-08T16:08:21;57923.84;;;-139.99;100.00
24154;BME280;12312;53.362;-1.518;2023-04-08T16:12:05;57923.84;;;-139.99;100.00
24154;BME280;12312;53.362;-1.518;2023-04-08T16:15:48;57923.84;;;-139.99;100.00
24154;BME280;12312;53.362;-1.518;2023-04-08T16:19:30;57923.84;;;-139.99;100.00
24154;BME280;12312;53.362;-1.518;2023-04-08T16:23:14;57923.84;;;-139.99;100.00
24154;BME280;12312;53.362;-1.518;2023-04-08T16:26:57;57923.84;;;-139.99;100.00
24154;BME280;12312;53.362;-1.518;2023-04-08T16:30:40;57923.84;;;-139.99;100.00
24154;BME280;12312;53.362;-1.518;2023-04-08T16:34:25;57923.84;;;-139.99;100.00
24154;BME280;12312;53.362;-1.518;2023-04-08T16:38:07;57923.84;;;-139.99;100.00
24154;BME280;12312;53.362;-1.518;2023-04-08T16:41:50;57923.84;;;-139.99;100.00
24154;BME280;12312;53.362;-1.518;2023-04-08T16:45:33;57923.84;;;-139.99;100.00
24154;BME280;12312;53.362;-1.518;2023-04-08T16:49:16;57923.84;;;-139.99;100.00
24154;BME280;12312;53.362;-1.518;2023-04-08T16:52:59;57923.84;;;-139.99;100.00
24154;BME280;12312;53.362;-1.518;2023-04-08T16:56:41;57923.84;;;-139.99;100.00
24154;BME280;12312;53.362;-1.518;2023-04-08T17:00:29;57923.84;;;-139.99;100.00
24154;BME280;12312;53.362;-1.518;2023-04-08T17:04:12;57923.84;;;-139.99;100.00
24154;BME280;12312;53.362;-1.518;2023-04-08T17:07:55;57923.84;;;-139.99;100.00
24154;BME280;12312;53.362;-1.518;2023-04-08T17:11:38;57923.84;;;-139.99;100.00
24154;BME280;12312;53.362;-1.518;2023-04-08T17:15:20;57923.84;;;-139.99;100.00
24154;BME280;12312;53.362;-1.518;2023-04-08T17:19:03;57923.84;;;-139.99;100.00
24154;BME280;12312;53.362;-1.518;2023-04-08T17:22:45;57923.84;;;-139.99;100.00
24154;BME280;12312;53.362;-1.518;2023-04-08T17:26:28;57923.84;;;-139.99;100.00
24154;BME280;12312;53.362;-1.518;2023-04-08T17:30:11;57923.84;;;-139.99;100.00
24154;BME280;12312;53.362;-1.518;2023-04-08T17:33:54;57923.84;;;-139.99;100.00
24154;BME280;12312;53.362;-1.518;2023-04-08T17:37:37;57923.84;;;-139.99;100.00
24154;BME280;12312;53.362;-1.518;2023-04-08T17:41:22;57923.84;;;-139.99;100.00
24154;BME280;12312;53.362;-1.518;2023-04-08T17:46:42;100028.47;;;13.06;61.06
24154;BME280;12312;53.362;-1.518;2023-04-08T17:49:26;100028.53;;;12.92;62.81
24154;BME280;12312;53.362;-1.518;2023-04-08T17:52:11;100015.28;;;12.91;62.19
24154;BME280;12312;53.362;-1.518;2023-04-08T17:54:56;100022.00;;;12.84;63.13
24154;BME280;12312;53.362;-1.518;2023-04-08T17:57:40;100025.06;;;12.78;63.82
24154;BME280;12312;53.362;-1.518;2023-04-08T18:00:24;100028.50;;;12.80;63.17
24154;BME280;12312;53.362;-1.518;2023-04-08T18:03:09;100024.88;;;12.68;64.41
24154;BME280;12312;53.362;-1.518;2023-04-08T18:05:53;100031.03;;;12.69;64.27
24154;BME280;12312;53.362;-1.518;2023-04-08T18:08:40;100035.75;;;12.78;64.74
24154;BME280;12312;53.362;-1.518;2023-04-08T18:11:24;100032.09;;;12.53;65.36
24154;BME280;12312;53.362;-1.518;2023-04-08T18:14:11;100031.66;;;12.59;65.06
24154;BME280;12312;53.362;-1.518;2023-04-08T18:16:55;100030.81;;;12.46;66.55
24154;BME280;12312;53.362;-1.518;2023-04-08T18:19:39;100030.81;;;12.46;66.20
24154;BME280;12312;53.362;-1.518;2023-04-08T18:22:23;100034.22;;;12.48;66.75
24154;BME280;12312;53.362;-1.518;2023-04-08T18:25:07;100038.47;;;12.38;67.39